sensor_id;sensor_type;location;lat;lon;timestamp;temperature;humidity
40960;DHT22;27842;52.272;8.052;2023-11-22T00:00:07;6.60;99.90
40960;DHT22;27842;52.272;8.052;2023-11-22T00:02:32;6.60;99.90
40960;DHT22;27842;52.272;8.052;2023-11-22T00:04:58;6.60;99.90
40960;DHT22;27842;52.272;8.052;2023-11-22T00:07:24;6.60;99.90
40960;DHT22;27842;52.272;8.052;2023-11-22T00:09:49;6.50;99.90
40960;DHT22;27842;52.272;8.052;2023-11-22T00:12:15;6.50;99.90
40960;DHT22;27842;52.272;8.052;2023-11-22T00:14:43;6.50;99.90
40960;DHT22;27842;52.272;8.052;2023-11-22T00:17:08;6.50;99.90
40960;DHT22;27842;52.272;8.052;2023-11-22T00:19:34;6.50;99.90
40960;DHT22;27842;52.272;8.052;2023-11-22T00:22:00;6.50;99.90
40960;DHT22;27842;52.272;8.052;2023-11-22T00:24:25;6.50;99.90
40960;DHT22;27842;52.272;8.052;2023-11-22T00:26:51;6.50;99.90
40960;DHT22;27842;52.272;8.052;2023-11-22T00:29:16;6.50;99.90
40960;DHT22;27842;52.272;8.052;2023-11-22T00:31:42;6.50;99.90
40960;DHT22;27842;52.272;8.052;2023-11-22T00:34:09;6.50;99.90
40960;DHT22;27842;52.272;8.052;2023-11-22T00:36:35;6.50;99.90
40960;DHT22;27842;52.272;8.052;2023-11-22T00:39:01;6.50;99.90
40960;DHT22;27842;52.272;8.052;2023-11-22T00:41:31;6.40;99.90
40960;DHT22;27842;52.272;8.052;2023-11-22T00:43:57;6.40;99.90
40960;DHT22;27842;52.272;8.052;2023-11-22T00:46:22;6.40;99.90
40960;DHT22;27842;52.272;8.052;2023-11-22T00:48:48;6.40;99.90
40960;DHT22;27842;52.272;8.052;2023-11-22T00:51:15;6.40;99.90
40960;DHT22;27842;52.272;8.052;2023-11-22T00:53:41;6.30;99.90
40960;DHT22;27842;52.272;8.052;2023-11-22T00:56:07;6.30;99.90
40960;DHT22;27842;52.272;8.052;2023-11-22T00:58:32;6.20;99.90
40960;DHT22;27842;52.272;8.052;2023-11-22T01:00:58;6.20;99.90
40960;DHT22;27842;52.272;8.052;2023-11-22T01:03:23;6.20;99.90
40960;DHT22;27842;52.272;8.052;2023-11-22T01:05:49;6.20;99.90
40960;DHT22;27842;52.272;8.052;2023-11-22T01:08:15;6.20;99.90
40960;DHT22;27842;52.272;8.052;2023-11-22T01:10:40;6.10;99.90
40960;DHT22;27842;52.272;8.052;2023-11-22T01:13:06;6.10;99.90
40960;DHT22;27842;52.272;8.052;2023-11-22T01:15:31;6.20;99.90
40960;DHT22;27842;52.272;8.052;2023-11-22T01:17:57;6.10;99.90
40960;DHT22;27842;52.272;8.052;2023-11-22T01:20:23;6.10;99.90
40960;DHT22;27842;52.272;8.052;2023-11-22T01:22:49;6.10;99.90
40960;DHT22;27842;52.272;8.052;2023-11-22T01:25:15;6.00;99.90
40960;DHT22;27842;52.272;8.052;2023-11-22T01:27:40;6.00;99.90
40960;DHT22;27842;52.272;8.052;2023-11-22T01:30:06;6.00;99.90
40960;DHT22;27842;52.272;8.052;2023-11-22T01:32:35;6.00;99.90
40960;DHT22;27842;52.272;8.052;2023-11-22T01:35:01;6.00;99.90
40960;DHT22;27842;52.272;8.052;2023-11-22T01:37:27;6.00;99.90
40960;DHT22;27842;52.272;8.052;2023-11-22T01:39:52;5.90;99.90
40960;DHT22;27842;52.272;8.052;2023-11-22T01:42:20;5.90;99.90
40960;DHT22;27842;52.272;8.052;2023-11-22T01:44:46;5.90;99.90
40960;DHT22;27842;52.272;8.052;2023-11-22T01:47:13;5.80;99.90
40960;DHT22;27842;52.272;8.052;2023-11-22T01:49:40;5.80;99.90
40960;DHT22;27842;52.272;8.052;2023-11-22T01:52:05;5.80;99.90
40960;DHT22;27842;52.272;8.052;2023-11-22T01:54:32;5.80;99.90
40960;DHT22;27842;52.272;8.052;2023-11-22T01:56:58;5.70;99.90
40960;DHT22;27842;52.272;8.052;2023-11-22T01:59:25;5.70;99.90
40960;DHT22;27842;52.272;8.052;2023-11-22T02:01:53;5.70;99.90
40960;DHT22;27842;52.272;8.052;2023-11-22T02:04:20;5.60;99.90
40960;DHT22;27842;52.272;8.052;2023-11-22T02:06:46;5.70;99.90
40960;DHT22;27842;52.272;8.052;2023-11-22T02:09:12;5.70;99.90
40960;DHT22;27842;52.272;8.052;2023-11-22T02:11:41;5.60;99.90
40960;DHT22;27842;52.272;8.052;2023-11-22T02:14:08;5.60;99.90
40960;DHT22;27842;52.272;8.052;2023-11-22T02:16:34;5.60;99.90
40960;DHT22;27842;52.272;8.052;2023-11-22T02:19:00;5.60;99.90
40960;DHT22;27842;52.272;8.052;2023-11-22T02:21:26;5.50;99.90
40960;DHT22;27842;52.272;8.052;2023-11-22T02:23:52;5.50;99.90
40960;DHT22;27842;52.272;8.052;2023-11-22T02:26:17;5.50;99.90
40960;DHT22;27842;52.272;8.052;2023-11-22T02:28:44;5.50;99.90
40960;DHT22;27842;52.272;8.052;2023-11-22T02:31:09;5.50;99.90
40960;DHT22;27842;52.272;8.052;2023-11-22T02:33:35;5.50;99.90
40960;DHT22;27842;52.272;8.052;2023-11-22T02:36:01;5.50;99.90
40960;DHT22;27842;52.272;8.052;2023-11-22T02:38:28;5.50;99.90
40960;DHT22;27842;52.272;8.052;2023-11-22T02:40:53;5.50;99.90
40960;DHT22;27842;52.272;8.052;2023-11-22T02:43:19;5.50;99.90
40960;DHT22;27842;52.272;8.052;2023-11-22T02:45:45;5.50;99.90
40960;DHT22;27842;52.272;8.052;2023-11-22T02:48:11;5.50;99.90
40960;DHT22;27842;52.272;8.052;2023-11-22T02:50:38;5.40;99.90
40960;DHT22;27842;52.272;8.052;2023-11-22T02:53:04;5.40;99.90
40960;DHT22;27842;52.272;8.052;2023-11-22T02:55:30;5.40;99.90
40960;DHT22;27842;52.272;8.052;2023-11-22T02:57:56;5.50;99.90
40960;DHT22;27842;52.272;8.052;2023-11-22T03:00:21;5.40;99.90
40960;DHT22;27842;52.272;8.052;2023-11-22T03:02:48;5.40;99.90
40960;DHT22;27842;52.272;8.052;2023-11-22T03:05:19;5.40;99.90
40960;DHT22;27842;52.272;8.052;2023-11-22T03:07:45;5.40;99.90
40960;DHT22;27842;52.272;8.052;2023-11-22T03:10:11;5.40;99.90
40960;DHT22;27842;52.272;8.052;2023-11-22T03:12:36;5.40;99.90
40960;DHT22;27842;52.272;8.052;2023-11-22T03:15:03;5.40;99.90
40960;DHT22;27842;52.272;8.052;2023-11-22T03:17:29;5.40;99.90
40960;DHT22;27842;52.272;8.052;2023-11-22T03:19:55;5.40;99.90
40960;DHT22;27842;52.272;8.052;2023-11-22T03:22:25;5.40;99.90
40960;DHT22;27842;52.272;8.052;2023-11-22T03:24:50;5.40;99.90
40960;DHT22;27842;52.272;8.052;2023-11-22T03:27:16;5.40;99.90
40960;DHT22;27842;52.272;8.052;2023-11-22T03:29:43;5.30;99.90
40960;DHT22;27842;52.272;8.052;2023-11-22T03:32:09;5.30;99.90
40960;DHT22;27842;52.272;8.052;2023-11-22T03:34:36;5.30;99.90
40960;DHT22;27842;52.272;8.052;2023-11-22T03:37:02;5.20;99.90
40960;DHT22;27842;52.272;8.052;2023-11-22T03:39:27;5.30;99.90
40960;DHT22;27842;52.272;8.052;2023-11-22T03:41:53;5.20;99.90
40960;DHT22;27842;52.272;8.052;2023-11-22T03:44:19;5.20;99.90
40960;DHT22;27842;52.272;8.052;2023-11-22T03:46:44;5.20;99.90
40960;DHT22;27842;52.272;8.052;2023-11-22T03:49:10;5.20;99.90
40960;DHT22;27842;52.272;8.052;2023-11-22T03:51:39;5.20;99.90
40960;DHT22;27842;52.272;8.052;2023-11-22T03:54:05;5.10;99.90
40960;DHT22;27842;52.272;8.052;2023-11-22T03:56:31;5.10;99.90
40960;DHT22;27842;52.272;8.052;2023-11-22T03:58:56;5.10;99.90
40960;DHT22;27842;52.272;8.052;2023-11-22T04:01:22;5.10;99.90
40960;DHT22;27842;52.272;8.052;2023-11-22T04:03:48;5.10;99.90
40960;DHT22;27842;52.272;8.052;2023-11-22T04:06:17;5.10;99.90
40960;DHT22;27842;52.272;8.052;2023-11-22T04:08:44;5.00;99.90
40960;DHT22;27842;52.272;8.052;2023-11-22T04:11:13;5.00;99.90
40960;DHT22;27842;52.272;8.052;2023-11-22T04:13:39;5.00;99.90
40960;DHT22;27842;52.272;8.052;2023-11-22T04:16:08;5.00;99.90
40960;DHT22;27842;52.272;8.052;2023-11-22T04:18:39;5.00;99.90
40960;DHT22;27842;52.272;8.052;2023-11-22T04:21:06;4.90;99.90
40960;DHT22;27842;52.272;8.052;2023-11-22T04:23:32;5.00;99.90
40960;DHT22;27842;52.272;8.052;2023-11-22T04:25:58;5.00;99.90
40960;DHT22;27842;52.272;8.052;2023-11-22T04:28:24;4.90;99.90
40960;DHT22;27842;52.272;8.052;2023-11-22T04:30:51;4.90;99.90
40960;DHT22;27842;52.272;8.052;2023-11-22T04:33:17;4.90;99.90
40960;DHT22;27842;52.272;8.052;2023-11-22T04:35:43;4.90;99.90
40960;DHT22;27842;52.272;8.052;2023-11-22T04:38:09;4.90;99.90
40960;DHT22;27842;52.272;8.052;2023-11-22T04:40:34;4.90;99.90
40960;DHT22;27842;52.272;8.052;2023-11-22T04:43:00;4.90;99.90
40960;DHT22;27842;52.272;8.052;2023-11-22T04:45:26;4.90;99.90
40960;DHT22;27842;52.272;8.052;2023-11-22T04:47:51;4.90;99.90
40960;DHT22;27842;52.272;8.052;2023-11-22T04:50:17;4.90;99.90
40960;DHT22;27842;52.272;8.052;2023-11-22T04:52:43;4.80;99.90
40960;DHT22;27842;52.272;8.052;2023-11-22T04:55:09;4.70;99.90
40960;DHT22;27842;52.272;8.052;2023-11-22T04:57:34;4.70;99.90
40960;DHT22;27842;52.272;8.052;2023-11-22T05:00:00;4.70;99.90
40960;DHT22;27842;52.272;8.052;2023-11-22T05:02:26;4.70;99.90
40960;DHT22;27842;52.272;8.052;2023-11-22T05:04:53;4.70;99.90
40960;DHT22;27842;52.272;8.052;2023-11-22T05:07:18;4.70;99.90
40960;DHT22;27842;52.272;8.052;2023-11-22T05:09:46;4.70;99.90
40960;DHT22;27842;52.272;8.052;2023-11-22T05:12:12;4.70;99.90
40960;DHT22;27842;52.272;8.052;2023-11-22T05:14:38;4.60;99.90
40960;DHT22;27842;52.272;8.052;2023-11-22T05:17:04;4.60;99.90
40960;DHT22;27842;52.272;8.052;2023-11-22T05:19:30;4.60;99.90
40960;DHT22;27842;52.272;8.052;2023-11-22T05:21:57;4.60;99.90
40960;DHT22;27842;52.272;8.052;2023-11-22T05:24:23;4.60;99.90
40960;DHT22;27842;52.272;8.052;2023-11-22T05:26:48;4.60;99.90
40960;DHT22;27842;52.272;8.052;2023-11-22T05:29:14;4.60;99.90
40960;DHT22;27842;52.272;8.052;2023-11-22T05:31:40;4.60;99.90
40960;DHT22;27842;52.272;8.052;2023-11-22T05:34:06;4.60;99.90
40960;DHT22;27842;52.272;8.052;2023-11-22T05:36:32;4.60;99.90
40960;DHT22;27842;52.272;8.052;2023-11-22T05:38:57;4.60;99.90
40960;DHT22;27842;52.272;8.052;2023-11-22T05:41:26;4.60;99.90
40960;DHT22;27842;52.272;8.052;2023-11-22T05:43:54;4.60;99.90
40960;DHT22;27842;52.272;8.052;2023-11-22T05:46:21;4.60;99.90
40960;DHT22;27842;52.272;8.052;2023-11-22T05:48:51;4.60;99.90
40960;DHT22;27842;52.272;8.052;2023-11-22T05:51:17;4.50;99.90
40960;DHT22;27842;52.272;8.052;2023-11-22T05:53:42;4.50;99.90
40960;DHT22;27842;52.272;8.052;2023-11-22T05:56:08;4.50;99.90
40960;DHT22;27842;52.272;8.052;2023-11-22T05:58:37;4.50;99.90
40960;DHT22;27842;52.272;8.052;2023-11-22T06:01:04;4.50;99.90
40960;DHT22;27842;52.272;8.052;2023-11-22T06:03:29;4.50;99.90
40960;DHT22;27842;52.272;8.052;2023-11-22T06:05:55;4.50;99.90
40960;DHT22;27842;52.272;8.052;2023-11-22T06:08:23;4.50;99.90
40960;DHT22;27842;52.272;8.052;2023-11-22T06:10:48;4.60;99.90
40960;DHT22;27842;52.272;8.052;2023-11-22T06:13:14;4.60;99.90
40960;DHT22;27842;52.272;8.052;2023-11-22T06:15:40;4.60;99.90
40960;DHT22;27842;52.272;8.052;2023-11-22T06:18:06;4.60;99.90
40960;DHT22;27842;52.272;8.052;2023-11-22T06:20:31;4.60;99.90
40960;DHT22;27842;52.272;8.052;2023-11-22T06:22:57;4.60;99.90
40960;DHT22;27842;52.272;8.052;2023-11-22T06:25:23;4.50;99.90
40960;DHT22;27842;52.272;8.052;2023-11-22T06:27:49;4.40;99.90
40960;DHT22;27842;52.272;8.052;2023-11-22T06:30:14;4.40;99.90
40960;DHT22;27842;52.272;8.052;2023-11-22T06:32:43;4.40;99.90
40960;DHT22;27842;52.272;8.052;2023-11-22T06:35:09;4.30;99.90
40960;DHT22;27842;52.272;8.052;2023-11-22T06:37:36;4.30;99.90
40960;DHT22;27842;52.272;8.052;2023-11-22T06:40:07;4.20;99.90
40960;DHT22;27842;52.272;8.052;2023-11-22T06:42:38;4.20;99.90
40960;DHT22;27842;52.272;8.052;2023-11-22T06:45:05;4.20;99.90
40960;DHT22;27842;52.272;8.052;2023-11-22T06:47:54;4.20;99.90
40960;DHT22;27842;52.272;8.052;2023-11-22T06:50:20;4.20;99.90
40960;DHT22;27842;52.272;8.052;2023-11-22T06:52:46;4.20;99.90
40960;DHT22;27842;52.272;8.052;2023-11-22T06:55:14;4.20;99.90
40960;DHT22;27842;52.272;8.052;2023-11-22T06:57:40;4.20;99.90
40960;DHT22;27842;52.272;8.052;2023-11-22T07:00:06;4.20;99.90
40960;DHT22;27842;52.272;8.052;2023-11-22T07:02:35;4.20;99.90
40960;DHT22;27842;52.272;8.052;2023-11-22T07:05:10;4.10;99.90
40960;DHT22;27842;52.272;8.052;2023-11-22T07:07:36;4.10;99.90
40960;DHT22;27842;52.272;8.052;2023-11-22T07:10:02;4.10;99.90
40960;DHT22;27842;52.272;8.052;2023-11-22T07:12:27;4.10;99.90
40960;DHT22;27842;52.272;8.052;2023-11-22T07:14:54;4.10;99.90
40960;DHT22;27842;52.272;8.052;2023-11-22T07:17:21;4.10;99.90
40960;DHT22;27842;52.272;8.052;2023-11-22T07:19:48;4.10;99.90
40960;DHT22;27842;52.272;8.052;2023-11-22T07:22:14;4.10;99.90
40960;DHT22;27842;52.272;8.052;2023-11-22T07:24:45;4.00;99.90
40960;DHT22;27842;52.272;8.052;2023-11-22T07:27:15;4.00;99.90
40960;DHT22;27842;52.272;8.052;2023-11-22T07:29:42;4.00;99.90
40960;DHT22;27842;52.272;8.052;2023-11-22T07:32:26;4.00;99.90
40960;DHT22;27842;52.272;8.052;2023-11-22T07:34:52;4.00;99.90
40960;DHT22;27842;52.272;8.052;2023-11-22T07:37:21;4.00;99.90
40960;DHT22;27842;52.272;8.052;2023-11-22T07:39:46;4.00;99.90
40960;DHT22;27842;52.272;8.052;2023-11-22T07:42:12;4.00;99.90
40960;DHT22;27842;52.272;8.052;2023-11-22T07:44:40;4.10;99.90
40960;DHT22;27842;52.272;8.052;2023-11-22T07:47:13;4.10;99.90
40960;DHT22;27842;52.272;8.052;2023-11-22T07:49:39;4.00;99.90
40960;DHT22;27842;52.272;8.052;2023-11-22T07:52:07;4.00;99.90
40960;DHT22;27842;52.272;8.052;2023-11-22T07:54:33;4.10;99.90
40960;DHT22;27842;52.272;8.052;2023-11-22T07:56:58;4.10;99.90
40960;DHT22;27842;52.272;8.052;2023-11-22T07:59:25;4.10;99.90
40960;DHT22;27842;52.272;8.052;2023-11-22T08:01:51;4.10;99.90
40960;DHT22;27842;52.272;8.052;2023-11-22T08:04:19;4.10;99.90
40960;DHT22;27842;52.272;8.052;2023-11-22T08:06:45;4.20;99.90
40960;DHT22;27842;52.272;8.052;2023-11-22T08:09:11;4.10;99.90
40960;DHT22;27842;52.272;8.052;2023-11-22T08:11:36;4.20;99.90
40960;DHT22;27842;52.272;8.052;2023-11-22T08:14:03;4.20;99.90
40960;DHT22;27842;52.272;8.052;2023-11-22T08:16:29;4.20;99.90
40960;DHT22;27842;52.272;8.052;2023-11-22T08:18:55;4.20;99.90
40960;DHT22;27842;52.272;8.052;2023-11-22T08:21:22;4.10;99.90
40960;DHT22;27842;52.272;8.052;2023-11-22T08:23:48;4.20;99.90
40960;DHT22;27842;52.272;8.052;2023-11-22T08:26:15;4.20;99.90
40960;DHT22;27842;52.272;8.052;2023-11-22T08:28:41;4.20;99.90
40960;DHT22;27842;52.272;8.052;2023-11-22T08:31:06;4.20;99.90
40960;DHT22;27842;52.272;8.052;2023-11-22T08:33:38;4.20;99.90
40960;DHT22;27842;52.272;8.052;2023-11-22T08:39:00;4.20;99.90
40960;DHT22;27842;52.272;8.052;2023-11-22T08:41:30;4.10;99.90
40960;DHT22;27842;52.272;8.052;2023-11-22T08:43:56;4.10;99.90
40960;DHT22;27842;52.272;8.052;2023-11-22T08:46:31;4.20;99.90
40960;DHT22;27842;52.272;8.052;2023-11-22T08:48:57;4.20;99.90
40960;DHT22;27842;52.272;8.052;2023-11-22T08:51:22;4.20;99.90
40960;DHT22;27842;52.272;8.052;2023-11-22T08:53:48;4.30;99.90
40960;DHT22;27842;52.272;8.052;2023-11-22T08:56:14;4.20;99.90
40960;DHT22;27842;52.272;8.052;2023-11-22T08:58:41;4.30;99.90
40960;DHT22;27842;52.272;8.052;2023-11-22T09:01:08;4.30;99.90
40960;DHT22;27842;52.272;8.052;2023-11-22T09:03:34;4.30;99.90
40960;DHT22;27842;52.272;8.052;2023-11-22T09:06:00;4.30;99.90
40960;DHT22;27842;52.272;8.052;2023-11-22T09:08:26;4.30;99.90
40960;DHT22;27842;52.272;8.052;2023-11-22T09:10:52;4.30;99.90
40960;DHT22;27842;52.272;8.052;2023-11-22T09:13:18;4.40;99.90
40960;DHT22;27842;52.272;8.052;2023-11-22T09:15:45;4.40;99.90
40960;DHT22;27842;52.272;8.052;2023-11-22T09:18:11;4.40;99.90
40960;DHT22;27842;52.272;8.052;2023-11-22T09:20:39;4.30;99.90
40960;DHT22;27842;52.272;8.052;2023-11-22T09:23:09;4.40;99.90
40960;DHT22;27842;52.272;8.052;2023-11-22T09:25:35;4.40;99.90
40960;DHT22;27842;52.272;8.052;2023-11-22T09:28:01;4.40;99.90
40960;DHT22;27842;52.272;8.052;2023-11-22T09:30:29;4.40;99.90
40960;DHT22;27842;52.272;8.052;2023-11-22T09:32:59;4.40;99.90
40960;DHT22;27842;52.272;8.052;2023-11-22T09:35:25;4.40;99.90
40960;DHT22;27842;52.272;8.052;2023-11-22T09:37:51;4.40;99.90
40960;DHT22;27842;52.272;8.052;2023-11-22T09:40:21;4.40;99.90
40960;DHT22;27842;52.272;8.052;2023-11-22T09:42:48;4.30;99.90
40960;DHT22;27842;52.272;8.052;2023-11-22T09:45:17;4.30;99.90
40960;DHT22;27842;52.272;8.052;2023-11-22T09:47:46;4.30;99.90
40960;DHT22;27842;52.272;8.052;2023-11-22T09:50:20;4.30;99.90
40960;DHT22;27842;52.272;8.052;2023-11-22T09:52:51;4.30;99.90
40960;DHT22;27842;52.272;8.052;2023-11-22T09:55:27;4.40;99.90
40960;DHT22;27842;52.272;8.052;2023-11-22T09:57:54;4.40;99.90
40960;DHT22;27842;52.272;8.052;2023-11-22T10:00:22;4.50;99.90
40960;DHT22;27842;52.272;8.052;2023-11-22T10:02:50;4.50;99.90
40960;DHT22;27842;52.272;8.052;2023-11-22T10:05:16;4.60;99.90
40960;DHT22;27842;52.272;8.052;2023-11-22T10:07:41;4.60;99.90
40960;DHT22;27842;52.272;8.052;2023-11-22T10:10:08;4.60;99.90
40960;DHT22;27842;52.272;8.052;2023-11-22T10:12:36;4.60;99.90
40960;DHT22;27842;52.272;8.052;2023-11-22T10:15:13;4.70;99.90
40960;DHT22;27842;52.272;8.052;2023-11-22T10:17:39;4.70;99.90
40960;DHT22;27842;52.272;8.052;2023-11-22T10:20:05;4.70;99.90
40960;DHT22;27842;52.272;8.052;2023-11-22T10:22:46;4.80;99.90
40960;DHT22;27842;52.272;8.052;2023-11-22T10:25:15;4.90;99.90
40960;DHT22;27842;52.272;8.052;2023-11-22T10:27:47;4.90;99.90
40960;DHT22;27842;52.272;8.052;2023-11-22T10:30:13;4.90;99.90
40960;DHT22;27842;52.272;8.052;2023-11-22T10:32:41;4.90;99.90
40960;DHT22;27842;52.272;8.052;2023-11-22T10:35:07;5.00;99.90
40960;DHT22;27842;52.272;8.052;2023-11-22T10:37:34;4.90;99.90
40960;DHT22;27842;52.272;8.052;2023-11-22T10:40:04;5.00;99.90
40960;DHT22;27842;52.272;8.052;2023-11-22T10:42:33;4.90;99.90
40960;DHT22;27842;52.272;8.052;2023-11-22T10:45:00;5.00;99.90
40960;DHT22;27842;52.272;8.052;2023-11-22T10:47:32;5.10;99.90
40960;DHT22;27842;52.272;8.052;2023-11-22T10:49:59;5.10;99.90
40960;DHT22;27842;52.272;8.052;2023-11-22T10:52:27;5.10;99.90
40960;DHT22;27842;52.272;8.052;2023-11-22T10:55:01;5.10;99.90
40960;DHT22;27842;52.272;8.052;2023-11-22T10:57:32;5.10;99.90
40960;DHT22;27842;52.272;8.052;2023-11-22T11:00:04;5.20;99.90
40960;DHT22;27842;52.272;8.052;2023-11-22T11:02:41;5.20;99.90
40960;DHT22;27842;52.272;8.052;2023-11-22T11:05:16;5.20;99.90
40960;DHT22;27842;52.272;8.052;2023-11-22T11:07:49;5.20;99.90
40960;DHT22;27842;52.272;8.052;2023-11-22T11:10:20;5.20;99.90
40960;DHT22;27842;52.272;8.052;2023-11-22T11:12:46;5.30;99.90
40960;DHT22;27842;52.272;8.052;2023-11-22T11:15:16;5.20;99.90
40960;DHT22;27842;52.272;8.052;2023-11-22T11:17:48;5.30;99.90
40960;DHT22;27842;52.272;8.052;2023-11-22T11:20:23;5.30;99.90
40960;DHT22;27842;52.272;8.052;2023-11-22T11:22:53;5.30;99.90
40960;DHT22;27842;52.272;8.052;2023-11-22T11:25:18;5.30;99.90
40960;DHT22;27842;52.272;8.052;2023-11-22T11:27:51;5.40;99.90
40960;DHT22;27842;52.272;8.052;2023-11-22T11:30:40;5.30;99.90
40960;DHT22;27842;52.272;8.052;2023-11-22T11:33:13;5.40;99.90
40960;DHT22;27842;52.272;8.052;2023-11-22T11:35:46;5.40;99.90
40960;DHT22;27842;52.272;8.052;2023-11-22T11:38:17;5.40;99.90
40960;DHT22;27842;52.272;8.052;2023-11-22T11:40:52;5.40;99.90
40960;DHT22;27842;52.272;8.052;2023-11-22T11:43:39;5.50;99.90
40960;DHT22;27842;52.272;8.052;2023-11-22T11:46:10;5.40;99.90
40960;DHT22;27842;52.272;8.052;2023-11-22T11:48:36;5.40;99.90
40960;DHT22;27842;52.272;8.052;2023-11-22T11:51:02;5.50;99.90
40960;DHT22;27842;52.272;8.052;2023-11-22T11:53:27;5.50;99.90
40960;DHT22;27842;52.272;8.052;2023-11-22T11:56:13;5.50;99.90
40960;DHT22;27842;52.272;8.052;2023-11-22T11:59:33;5.50;99.90
40960;DHT22;27842;52.272;8.052;2023-11-22T12:04:37;5.60;99.90
40960;DHT22;27842;52.272;8.052;2023-11-22T12:07:03;5.60;99.90
40960;DHT22;27842;52.272;8.052;2023-11-22T12:09:28;5.60;99.90
40960;DHT22;27842;52.272;8.052;2023-11-22T12:11:55;5.60;99.90
40960;DHT22;27842;52.272;8.052;2023-11-22T12:14:24;5.50;99.90
40960;DHT22;27842;52.272;8.052;2023-11-22T12:16:52;5.60;99.90
40960;DHT22;27842;52.272;8.052;2023-11-22T12:19:35;5.60;99.90
40960;DHT22;27842;52.272;8.052;2023-11-22T12:22:00;5.60;99.90
40960;DHT22;27842;52.272;8.052;2023-11-22T12:24:26;5.60;99.90
40960;DHT22;27842;52.272;8.052;2023-11-22T12:26:52;5.70;99.90
40960;DHT22;27842;52.272;8.052;2023-11-22T12:29:19;5.70;99.90
40960;DHT22;27842;52.272;8.052;2023-11-22T12:31:49;5.70;99.90
40960;DHT22;27842;52.272;8.052;2023-11-22T12:34:22;5.70;99.90
40960;DHT22;27842;52.272;8.052;2023-11-22T12:36:51;5.70;99.90
40960;DHT22;27842;52.272;8.052;2023-11-22T12:39:20;5.80;99.90
40960;DHT22;27842;52.272;8.052;2023-11-22T12:41:53;5.80;99.90
40960;DHT22;27842;52.272;8.052;2023-11-22T12:44:19;5.80;99.90
40960;DHT22;27842;52.272;8.052;2023-11-22T12:46:50;5.80;99.90
40960;DHT22;27842;52.272;8.052;2023-11-22T12:49:30;5.80;99.90
40960;DHT22;27842;52.272;8.052;2023-11-22T12:51:57;5.90;99.90
40960;DHT22;27842;52.272;8.052;2023-11-22T12:54:23;5.80;99.90
40960;DHT22;27842;52.272;8.052;2023-11-22T12:56:50;5.80;99.90
40960;DHT22;27842;52.272;8.052;2023-11-22T12:59:24;5.90;99.90
40960;DHT22;27842;52.272;8.052;2023-11-22T13:01:53;5.80;99.90
40960;DHT22;27842;52.272;8.052;2023-11-22T13:04:19;5.90;99.90
40960;DHT22;27842;52.272;8.052;2023-11-22T13:06:45;5.90;99.90
40960;DHT22;27842;52.272;8.052;2023-11-22T13:09:11;5.90;99.90
40960;DHT22;27842;52.272;8.052;2023-11-22T13:11:43;5.90;99.90
40960;DHT22;27842;52.272;8.052;2023-11-22T13:14:09;5.90;99.90
40960;DHT22;27842;52.272;8.052;2023-11-22T13:16:35;5.90;99.90
40960;DHT22;27842;52.272;8.052;2023-11-22T13:19:04;5.90;99.90
40960;DHT22;27842;52.272;8.052;2023-11-22T13:21:30;5.90;99.90
40960;DHT22;27842;52.272;8.052;2023-11-22T13:23:56;5.90;99.90
40960;DHT22;27842;52.272;8.052;2023-11-22T13:26:24;5.80;99.90
40960;DHT22;27842;52.272;8.052;2023-11-22T13:28:50;5.80;99.90
40960;DHT22;27842;52.272;8.052;2023-11-22T13:31:17;5.80;99.90
40960;DHT22;27842;52.272;8.052;2023-11-22T13:33:42;5.80;99.90
40960;DHT22;27842;52.272;8.052;2023-11-22T13:36:09;5.90;99.90
40960;DHT22;27842;52.272;8.052;2023-11-22T13:38:36;5.90;99.90
40960;DHT22;27842;52.272;8.052;2023-11-22T13:41:02;5.80;99.90
40960;DHT22;27842;52.272;8.052;2023-11-22T13:43:28;5.80;99.90
40960;DHT22;27842;52.272;8.052;2023-11-22T13:45:53;5.80;99.90
40960;DHT22;27842;52.272;8.052;2023-11-22T13:48:19;5.80;99.90
40960;DHT22;27842;52.272;8.052;2023-11-22T13:50:44;5.80;99.90
40960;DHT22;27842;52.272;8.052;2023-11-22T13:53:10;5.80;99.90
40960;DHT22;27842;52.272;8.052;2023-11-22T13:55:36;5.80;99.90
40960;DHT22;27842;52.272;8.052;2023-11-22T13:58:02;5.80;99.90
40960;DHT22;27842;52.272;8.052;2023-11-22T14:00:30;5.80;99.90
40960;DHT22;27842;52.272;8.052;2023-11-22T14:03:01;5.80;99.90
40960;DHT22;27842;52.272;8.052;2023-11-22T14:05:33;5.80;99.90
40960;DHT22;27842;52.272;8.052;2023-11-22T14:07:59;5.80;99.90
40960;DHT22;27842;52.272;8.052;2023-11-22T14:10:26;5.80;99.90
40960;DHT22;27842;52.272;8.052;2023-11-22T14:12:52;5.80;99.90
40960;DHT22;27842;52.272;8.052;2023-11-22T14:15:18;5.70;99.90
40960;DHT22;27842;52.272;8.052;2023-11-22T14:17:45;5.70;99.90
40960;DHT22;27842;52.272;8.052;2023-11-22T14:20:15;5.70;99.90
40960;DHT22;27842;52.272;8.052;2023-11-22T14:22:41;5.70;99.90
40960;DHT22;27842;52.272;8.052;2023-11-22T14:25:11;5.70;99.90
40960;DHT22;27842;52.272;8.052;2023-11-22T14:27:39;5.70;99.90
40960;DHT22;27842;52.272;8.052;2023-11-22T14:30:14;5.70;99.90
40960;DHT22;27842;52.272;8.052;2023-11-22T14:32:42;5.70;99.90
40960;DHT22;27842;52.272;8.052;2023-11-22T14:35:08;5.60;99.90
40960;DHT22;27842;52.272;8.052;2023-11-22T14:37:35;5.60;99.90
40960;DHT22;27842;52.272;8.052;2023-11-22T14:40:03;5.60;99.90
40960;DHT22;27842;52.272;8.052;2023-11-22T14:42:41;5.60;99.90
40960;DHT22;27842;52.272;8.052;2023-11-22T14:45:10;5.60;99.90
40960;DHT22;27842;52.272;8.052;2023-11-22T14:47:52;5.60;99.90
40960;DHT22;27842;52.272;8.052;2023-11-22T14:50:18;5.50;99.90
40960;DHT22;27842;52.272;8.052;2023-11-22T14:52:45;5.50;99.90
40960;DHT22;27842;52.272;8.052;2023-11-22T14:55:12;5.50;99.90
40960;DHT22;27842;52.272;8.052;2023-11-22T14:57:38;5.50;99.90
40960;DHT22;27842;52.272;8.052;2023-11-22T15:00:05;5.50;99.90
40960;DHT22;27842;52.272;8.052;2023-11-22T15:02:35;5.50;99.90
40960;DHT22;27842;52.272;8.052;2023-11-22T15:05:02;5.50;99.90
40960;DHT22;27842;52.272;8.052;2023-11-22T15:07:29;5.50;99.90
40960;DHT22;27842;52.272;8.052;2023-11-22T15:09:54;5.40;99.90
40960;DHT22;27842;52.272;8.052;2023-11-22T15:12:20;5.50;99.90
40960;DHT22;27842;52.272;8.052;2023-11-22T15:14:45;5.50;99.90
40960;DHT22;27842;52.272;8.052;2023-11-22T15:17:14;5.40;99.90
40960;DHT22;27842;52.272;8.052;2023-11-22T15:19:39;5.40;99.90
40960;DHT22;27842;52.272;8.052;2023-11-22T15:22:07;5.40;99.90
40960;DHT22;27842;52.272;8.052;2023-11-22T15:24:32;5.40;99.90
40960;DHT22;27842;52.272;8.052;2023-11-22T15:26:58;5.40;99.90
40960;DHT22;27842;52.272;8.052;2023-11-22T15:29:24;5.40;99.90
40960;DHT22;27842;52.272;8.052;2023-11-22T15:31:49;5.50;99.90
40960;DHT22;27842;52.272;8.052;2023-11-22T15:34:16;5.40;99.90
40960;DHT22;27842;52.272;8.052;2023-11-22T15:36:42;5.50;99.90
40960;DHT22;27842;52.272;8.052;2023-11-22T15:39:07;5.40;99.90
40960;DHT22;27842;52.272;8.052;2023-11-22T15:41:38;5.40;99.90
40960;DHT22;27842;52.272;8.052;2023-11-22T15:44:04;5.50;99.90
40960;DHT22;27842;52.272;8.052;2023-11-22T15:46:31;5.40;99.90
40960;DHT22;27842;52.272;8.052;2023-11-22T15:49:03;5.40;99.90
40960;DHT22;27842;52.272;8.052;2023-11-22T15:51:29;5.40;99.90